Time,TemperatureF,DewpointF,PressureIn,WindDirection,WindDirectionDegrees,WindSpeedMPH,WindSpeedGustMPH,Humidity,HourlyPrecipIn,Conditions,Clouds,dailyrainin,SolarRadiationWatts/m^2,SoftwareType,DateUTC
2013-04-22 00:02:00,36.9,30.1,30.60,NNW,337,1.0,2.0,76,0.00,CLR,SCT,0.00,0.0,WeatherDisplay:10.37,2013-04-22 04:02:00,
2013-04-22 00:06:00,36.7,29.5,30.59,WNW,295,1.0,2.0,75,0.00,CLR,SCT,0.00,0.0,WeatherDisplay:10.37,2013-04-22 04:06:00,
2013-04-22 00:11:00,36.4,29.6,30.60,West,271,0.0,1.0,76,0.00,CLR,SCT,0.00,0.0,WeatherDisplay:10.37,2013-04-22 04:11:00,
2013-04-22 00:16:00,36.3,29.5,30.60,West,270,0.0,2.0,76,0.00,CLR,SCT,0.00,0.0,WeatherDisplay:10.37,2013-04-22 04:16:00,
2013-04-22 00:21:00,36.0,29.1,30.60,West,270,0.0,2.0,76,0.00,CLR,SCT,0.00,0.0,WeatherDisplay:10.37,2013-04-22 04:21:00,
2013-04-22 00:26:00,35.5,28.6,30.60,West,270,0.0,2.0,76,0.00,CLR,SCT,0.00,0.0,WeatherDisplay:10.37,2013-04-22 04:26:00,
2013-04-22 00:31:00,35.3,28.5,30.60,West,270,0.0,2.0,76,0.00,CLR,SCT,0.00,0.0,WeatherDisplay:10.37,2013-04-22 04:31:00,
2013-04-22 00:40:00,34.7,28.2,30.60,West,270,0.0,1.0,77,0.00,CLR,SCT,0.00,0.0,WeatherDisplay:10.37,2013-04-22 04:40:00,
2013-04-22 00:46:00,34.5,28.4,30.60,West,270,0.0,1.0,78,0.00,CLR,SCT,0.00,0.0,WeatherDisplay:10.37,2013-04-22 04:46:00,
2013-04-22 00:56:00,34.6,29.1,30.60,West,270,0.0,0.0,80,0.00,CLR,SCT,0.00,0.0,WeatherDisplay:10.37,2013-04-22 04:56:00,
2013-04-22 01:01:00,34.7,29.2,30.61,West,270,0.0,0.0,80,0.00,CLR,SCT,0.00,0.0,WeatherDisplay:10.37,2013-04-22 05:01:00,
2013-04-22 01:10:00,34.8,29.8,30.61,West,270,0.0,2.0,82,0.00,CLR,SCT,0.00,0.0,WeatherDisplay:10.37,2013-04-22 05:10:00,
2013-04-22 01:16:00,34.9,30.8,30.61,West,270,0.0,2.0,85,0.00,CLR,SCT,0.00,0.0,WeatherDisplay:10.37,2013-04-22 05:16:00,
2013-04-22 01:26:00,34.9,30.8,30.61,NW,325,0.0,1.0,85,0.00,CLR,SCT,0.00,0.0,WeatherDisplay:10.37,2013-04-22 05:26:00,
2013-04-22 01:31:00,34.9,30.8,30.61,North,6,0.0,1.0,85,0.00,CLR,SCT,0.00,0.0,WeatherDisplay:10.37,2013-04-22 05:31:00,
2013-04-22 01:40:00,34.9,30.8,30.61,North,0,0.0,1.0,85,0.00,CLR,SCT,0.00,0.0,WeatherDisplay:10.37,2013-04-22 05:40:00,
2013-04-22 01:46:00,34.8,30.7,30.61,North,359,0.0,2.0,85,0.00,CLR,SCT,0.00,0.0,WeatherDisplay:10.37,2013-04-22 05:46:00,
2013-04-22 01:56:00,33.7,29.4,30.60,NW,306,0.0,2.0,84,0.00,CLR,SCT,0.00,0.0,WeatherDisplay:10.37,2013-04-22 05:56:00,
2013-04-22 02:01:00,33.5,29.5,30.60,WNW,282,0.0,1.0,85,0.00,CLR,SCT,0.00,0.0,WeatherDisplay:10.37,2013-04-22 06:01:00,
2013-04-22 02:11:00,33.4,29.4,30.60,West,270,0.0,1.0,85,0.00,CLR,SCT,0.00,0.0,WeatherDisplay:10.37,2013-04-22 06:11:00,
2013-04-22 02:16:00,33.4,29.7,30.60,West,270,0.0,2.0,86,0.00,CLR,SCT,0.00,0.0,WeatherDisplay:10.37,2013-04-22 06:16:00,
2013-04-22 02:25:00,33.3,29.8,30.60,West,270,0.0,2.0,87,0.00,CLR,SCT,0.00,0.0,WeatherDisplay:10.37,2013-04-22 06:25:00,
2013-04-22 02:31:00,33.3,29.8,30.60,West,270,0.0,2.0,87,0.00,CLR,SCT,0.00,0.0,WeatherDisplay:10.37,2013-04-22 06:31:00,
2013-04-22 02:41:00,33.5,30.3,30.60,West,270,0.0,1.0,88,0.00,CLR,SCT,0.00,0.0,WeatherDisplay:10.37,2013-04-22 06:41:00,
2013-04-22 02:46:00,33.6,30.7,30.60,West,270,0.0,0.0,89,0.00,CLR,SCT,0.00,0.0,WeatherDisplay:10.37,2013-04-22 06:46:00,
2013-04-22 02:56:00,33.4,30.8,30.60,West,270,0.0,2.0,90,0.00,CLR,SCT,0.00,0.0,WeatherDisplay:10.37,2013-04-22 06:56:00,
2013-04-22 03:02:00,33.4,30.8,30.60,West,270,0.0,2.0,90,0.00,CLR,SCT,0.00,0.0,WeatherDisplay:10.37,2013-04-22 07:02:00,
2013-04-22 03:10:00,33.4,30.8,30.60,West,270,0.0,2.0,90,0.00,CLR,SCT,0.00,0.0,WeatherDisplay:10.37,2013-04-22 07:10:00,
2013-04-22 03:16:00,33.4,31.1,30.60,West,270,0.0,1.0,91,0.00,CLR,SCT,0.00,0.0,WeatherDisplay:10.37,2013-04-22 07:16:00,
2013-04-22 03:26:00,33.4,31.1,30.60,NW,326,0.0,2.0,91,0.00,CLR,SCT,0.00,0.0,WeatherDisplay:10.37,2013-04-22 07:26:00,
2013-04-22 03:31:00,33.3,31.0,30.61,NNW,336,0.0,2.0,91,0.00,CLR,SCT,0.00,0.0,WeatherDisplay:10.37,2013-04-22 07:31:00,
2013-04-22 03:41:00,33.2,31.1,30.60,West,280,0.0,1.0,92,0.00,CLR,SCT,0.00,0.0,WeatherDisplay:10.37,2013-04-22 07:41:00,
2013-04-22 03:46:00,33.1,30.7,30.61,NW,305,0.0,2.0,91,0.00,CLR,SCT,0.00,0.0,WeatherDisplay:10.37,2013-04-22 07:46:00,
2013-04-22 03:56:00,33.0,30.9,30.61,NW,316,0.0,1.0,92,0.00,CLR,SCT,0.00,0.0,WeatherDisplay:10.37,2013-04-22 07:56:00,
2013-04-22 04:02:00,32.9,30.6,30.61,NW,315,0.0,1.0,91,0.00,CLR,SCT,0.00,0.0,WeatherDisplay:10.37,2013-04-22 08:02:00,
2013-04-22 04:11:00,32.9,30.6,30.62,North,351,0.0,0.0,91,0.00,CLR,SCT,0.00,0.0,WeatherDisplay:10.37,2013-04-22 08:11:00,
2013-04-22 04:16:00,32.9,30.6,30.61,North,2,0.0,0.0,91,0.00,CLR,SCT,0.00,0.0,WeatherDisplay:10.37,2013-04-22 08:16:00,
2013-04-22 04:26:00,32.6,30.3,30.62,NNW,347,0.0,1.0,91,0.00,CLR,SCT,0.00,0.0,WeatherDisplay:10.37,2013-04-22 08:26:00,
2013-04-22 04:31:00,32.3,30.2,30.62,West,268,0.0,1.0,92,0.00,CLR,SCT,0.00,0.0,WeatherDisplay:10.37,2013-04-22 08:31:00,
2013-04-22 04:41:00,31.9,29.9,30.62,SW,225,0.0,2.0,92,0.00,CLR,SCT,0.00,0.0,WeatherDisplay:10.37,2013-04-22 08:41:00,
2013-04-22 04:46:00,31.6,29.8,30.62,SW,225,0.0,1.0,93,0.00,CLR,SCT,0.00,0.0,WeatherDisplay:10.37,2013-04-22 08:46:00,
2013-04-22 04:55:00,31.5,29.7,30.62,SW,225,0.0,2.0,93,0.00,CLR,SCT,0.00,0.0,WeatherDisplay:10.37,2013-04-22 08:55:00,
2013-04-22 05:02:00,31.5,29.7,30.62,SW,225,0.0,2.0,93,0.00,CLR,SCT,0.00,0.0,WeatherDisplay:10.37,2013-04-22 09:02:00,
2013-04-22 05:11:00,31.5,29.7,30.63,SW,225,0.0,2.0,93,0.00,CLR,SCT,0.00,0.0,WeatherDisplay:10.37,2013-04-22 09:11:00,
2013-04-22 05:16:00,31.0,29.5,30.63,SW,225,0.0,1.0,94,0.00,CLR,SCT,0.00,0.0,WeatherDisplay:10.37,2013-04-22 09:16:00,
2013-04-22 05:26:00,30.8,29.6,30.63,SW,225,0.0,1.0,95,0.00,CLR,SCT,0.00,0.0,WeatherDisplay:10.37,2013-04-22 09:26:00,
2013-04-22 05:31:00,30.7,29.5,30.63,SW,225,0.0,1.0,95,0.00,CLR,SCT,0.00,0.0,WeatherDisplay:10.37,2013-04-22 09:31:00,
2013-04-22 05:41:00,30.6,29.6,30.63,SW,225,0.0,2.0,96,0.00,CLR,SCT,0.00,0.0,WeatherDisplay:10.37,2013-04-22 09:41:00,
2013-04-22 05:52:00,30.6,29.6,30.64,SW,225,0.0,2.0,96,0.00,CLR,SCT,0.00,0.0,WeatherDisplay:10.37,2013-04-22 09:52:00,
2013-04-22 06:01:00,30.7,30.2,30.64,SW,225,0.0,1.0,98,0.00,CLR,SCT,0.00,0.0,WeatherDisplay:10.37,2013-04-22 10:01:00,
2013-04-22 06:11:00,30.7,30.0,30.64,SW,225,0.0,1.0,97,0.00,CLR,SCT,0.00,0.0,WeatherDisplay:10.37,2013-04-22 10:11:00,
2013-04-22 06:16:00,30.8,30.1,30.64,SW,225,0.0,1.0,97,0.00,CLR,SCT,0.00,0.0,WeatherDisplay:10.37,2013-04-22 10:16:00,
2013-04-22 06:26:00,31.1,30.4,30.64,WSW,243,0.0,2.0,97,0.00,CLR,SCT,0.00,0.0,WeatherDisplay:10.37,2013-04-22 10:26:00,
2013-04-22 06:31:00,31.5,30.7,30.65,West,265,0.0,2.0,97,0.00,CLR,SCT,0.00,0.0,WeatherDisplay:10.37,2013-04-22 10:31:00,
2013-04-22 06:46:00,32.4,31.6,30.64,West,281,1.0,2.0,97,0.00,CLR,SCT,0.00,0.0,WeatherDisplay:10.37,2013-04-22 10:46:00,
2013-04-22 06:56:00,33.4,32.6,30.65,West,275,0.0,2.0,97,0.00,CLR,SCT,0.00,0.0,WeatherDisplay:10.37,2013-04-22 10:56:00,
2013-04-22 07:02:00,34.0,33.3,30.65,West,274,1.0,3.0,97,0.00,CLR,SCT,0.00,0.0,WeatherDisplay:10.37,2013-04-22 11:02:00,
2013-04-22 07:11:00,34.8,33.5,30.65,West,270,0.0,2.0,95,0.00,CLR,SCT,0.00,0.0,WeatherDisplay:10.37,2013-04-22 11:11:00,
2013-04-22 07:21:00,35.8,33.9,30.65,WNW,296,1.0,2.0,93,0.00,CLR,SCT,0.00,0.0,WeatherDisplay:10.37,2013-04-22 11:21:00,
2013-04-22 07:31:00,36.6,33.9,30.66,West,279,0.0,2.0,90,0.00,CLR,SCT,0.00,0.0,WeatherDisplay:10.37,2013-04-22 11:31:00,
2013-04-22 07:41:00,37.6,34.4,30.66,NNW,331,0.0,2.0,88,0.00,CLR,SCT,0.00,0.0,WeatherDisplay:10.37,2013-04-22 11:41:00,
2013-04-22 07:46:00,38.1,34.3,30.66,NNW,329,0.0,2.0,86,0.00,CLR,SCT,0.00,0.0,WeatherDisplay:10.37,2013-04-22 11:46:00,
2013-04-22 07:56:00,38.8,33.5,30.66,NE,42,1.0,6.0,81,0.00,CLR,SCT,0.00,0.0,WeatherDisplay:10.37,2013-04-22 11:56:00,
2013-04-22 08:01:00,39.3,32.4,30.66,ENE,64,2.0,6.0,76,0.00,CLR,SCT,0.00,0.0,WeatherDisplay:10.37,2013-04-22 12:01:00,
2013-04-22 08:11:00,40.5,32.9,30.65,ENE,65,2.0,7.0,74,0.00,CLR,SCT,0.00,0.0,WeatherDisplay:10.37,2013-04-22 12:11:00,
2013-04-22 08:16:00,40.8,32.8,30.66,ENE,59,2.0,7.0,73,0.00,CLR,SCT,0.00,0.0,WeatherDisplay:10.37,2013-04-22 12:16:00,
2013-04-22 08:26:00,41.5,32.8,30.65,NE,48,1.0,5.0,71,0.00,CLR,SCT,0.00,0.0,WeatherDisplay:10.37,2013-04-22 12:26:00,
2013-04-22 08:31:00,41.8,32.4,30.65,NE,38,2.0,5.0,69,0.00,CLR,SCT,0.00,0.0,WeatherDisplay:10.37,2013-04-22 12:31:00,
2013-04-22 08:41:00,42.5,32.7,30.66,ESE,117,2.0,5.0,68,0.00,CLR,SCT,0.00,0.0,WeatherDisplay:10.37,2013-04-22 12:41:00,
2013-04-22 08:46:00,43.1,32.5,30.65,East,93,2.0,5.0,66,0.00,CLR,SCT,0.00,0.0,WeatherDisplay:10.37,2013-04-22 12:46:00,
2013-04-22 08:56:00,43.4,32.0,30.66,East,90,5.0,8.0,64,0.00,CLR,SCT,0.00,0.0,WeatherDisplay:10.37,2013-04-22 12:56:00,
2013-04-22 09:02:00,43.9,32.9,30.65,East,80,2.0,8.0,65,0.00,CLR,SCT,0.00,0.0,WeatherDisplay:10.37,2013-04-22 13:02:00,
2013-04-22 09:11:00,44.8,33.0,30.66,ENE,67,2.0,6.0,63,0.00,CLR,SCT,0.00,0.0,WeatherDisplay:10.37,2013-04-22 13:11:00,
2013-04-22 09:21:00,45.5,33.6,30.65,ENE,64,3.0,6.0,63,0.00,CLR,SCT,0.00,0.0,WeatherDisplay:10.37,2013-04-22 13:21:00,
2013-04-22 09:26:00,45.7,33.4,30.65,ENE,62,2.0,6.0,62,0.00,CLR,SCT,0.00,0.0,WeatherDisplay:10.37,2013-04-22 13:26:00,
2013-04-22 09:31:00,46.0,34.1,30.65,ENE,65,2.0,6.0,63,0.00,CLR,SCT,0.00,0.0,WeatherDisplay:10.37,2013-04-22 13:31:00,
2013-04-22 09:41:00,46.9,34.2,30.65,ENE,68,2.0,8.0,61,0.00,CLR,SCT,0.00,0.0,WeatherDisplay:10.37,2013-04-22 13:41:00,
2013-04-22 09:46:00,46.9,33.3,30.65,East,89,3.0,8.0,59,0.00,CLR,SCT,0.00,0.0,WeatherDisplay:10.37,2013-04-22 13:46:00,
2013-04-22 09:56:00,47.4,33.8,30.66,ENE,65,3.0,8.0,59,0.00,CLR,SCT,0.00,0.0,WeatherDisplay:10.37,2013-04-22 13:56:00,
2013-04-22 10:02:00,47.6,34.4,30.66,NE,34,2.0,9.0,60,0.00,CLR,SCT,0.00,0.0,WeatherDisplay:10.37,2013-04-22 14:02:00,
2013-04-22 10:11:00,48.6,34.5,30.67,ESE,120,3.0,9.0,58,0.00,CLR,SCT,0.00,0.0,WeatherDisplay:10.37,2013-04-22 14:11:00,
2013-04-22 10:16:00,49.9,35.3,30.67,ESE,103,2.0,6.0,57,0.00,CLR,SCT,0.00,0.0,WeatherDisplay:10.37,2013-04-22 14:16:00,
2013-04-22 10:25:00,50.0,34.0,30.67,East,90,3.0,8.0,54,0.00,CLR,SCT,0.00,0.0,WeatherDisplay:10.37,2013-04-22 14:25:00,
2013-04-22 10:31:00,50.9,31.4,30.68,ESE,107,5.0,10.0,47,0.00,CLR,SCT,0.00,0.0,WeatherDisplay:10.37,2013-04-22 14:31:00,
2013-04-22 10:41:00,50.9,29.8,30.68,SSE,161,2.0,10.0,44,0.00,CLR,SCT,0.00,0.0,WeatherDisplay:10.37,2013-04-22 14:41:00,
2013-04-22 10:46:00,50.9,29.7,30.68,SSE,161,1.0,8.0,44,0.00,CLR,SCT,0.00,0.0,WeatherDisplay:10.37,2013-04-22 14:46:00,
2013-04-22 10:56:00,52.1,27.9,30.67,ESE,121,6.0,10.0,39,0.00,CLR,SCT,0.00,0.0,WeatherDisplay:10.37,2013-04-22 14:56:00,
2013-04-22 11:02:00,51.8,28.2,30.67,ESE,120,3.0,10.0,40,0.00,CLR,SCT,0.00,0.0,WeatherDisplay:10.37,2013-04-22 15:02:00,
2013-04-22 11:11:00,51.8,28.2,30.66,ESE,104,3.0,13.0,40,0.00,SCT,SCT,0.00,0.0,WeatherDisplay:10.37,2013-04-22 15:11:00,
2013-04-22 11:16:00,52.2,28.0,30.66,East,100,6.0,13.0,39,0.00,SCT,SCT,0.00,0.0,WeatherDisplay:10.37,2013-04-22 15:16:00,
2013-04-22 11:26:00,52.5,26.9,30.65,ESE,114,3.0,13.0,37,0.00,SCT,SCT,0.00,0.0,WeatherDisplay:10.37,2013-04-22 15:26:00,
2013-04-22 11:31:00,53.1,26.8,30.64,East,88,7.0,13.0,36,0.00,SCT,SCT,0.00,0.0,WeatherDisplay:10.37,2013-04-22 15:31:00,
2013-04-22 11:41:00,53.7,26.6,30.64,East,90,5.0,8.0,35,0.00,SCT,SCT,0.00,0.0,WeatherDisplay:10.37,2013-04-22 15:41:00,
2013-04-22 11:46:00,53.9,26.1,30.64,ESE,107,5.0,8.0,34,0.00,SCT,SCT,0.00,0.0,WeatherDisplay:10.37,2013-04-22 15:46:00,
2013-04-22 12:02:00,53.6,27.3,30.64,East,80,5.0,13.0,36,0.00,SCT,SCT,0.00,0.0,WeatherDisplay:10.37,2013-04-22 16:02:00,
2013-04-22 12:11:00,53.9,28.2,30.63,East,91,7.0,17.0,37,0.00,CLR,SCT,0.00,0.0,WeatherDisplay:10.37,2013-04-22 16:11:00,
2013-04-22 12:16:00,53.8,28.1,30.63,SSE,154,5.0,17.0,37,0.00,CLR,SCT,0.00,0.0,WeatherDisplay:10.37,2013-04-22 16:16:00,
2013-04-22 12:26:00,54.0,28.3,30.62,East,91,3.0,9.0,37,0.00,CLR,SCT,0.00,0.0,WeatherDisplay:10.37,2013-04-22 16:26:00,
2013-04-22 12:31:00,54.2,27.8,30.63,NE,54,5.0,9.0,36,0.00,CLR,SCT,0.00,0.0,WeatherDisplay:10.37,2013-04-22 16:31:00,
2013-04-22 12:46:00,54.2,27.1,30.62,ESE,110,5.0,8.0,35,0.00,CLR,SCT,0.00,0.0,WeatherDisplay:10.37,2013-04-22 16:46:00,
2013-04-22 12:51:00,54.3,27.2,30.62,ESE,113,3.0,8.0,35,0.00,CLR,SCT,0.00,0.0,WeatherDisplay:10.37,2013-04-22 16:51:00,
2013-04-22 13:02:00,54.7,26.9,30.62,ESE,119,5.0,13.0,34,0.00,CLR,SCT,0.00,0.0,WeatherDisplay:10.37,2013-04-22 17:02:00,
2013-04-22 13:11:00,54.0,26.9,30.62,East,101,6.0,13.0,35,0.00,CLR,SCT,0.00,0.0,WeatherDisplay:10.37,2013-04-22 17:11:00,
2013-04-22 13:21:00,54.8,29.0,30.62,East,81,2.0,7.0,37,0.00,CLR,SCT,0.00,0.0,WeatherDisplay:10.37,2013-04-22 17:21:00,
2013-04-22 13:26:00,54.3,26.5,30.63,East,98,5.0,13.0,34,0.00,CLR,SCT,0.00,0.0,WeatherDisplay:10.37,2013-04-22 17:26:00,
2013-04-22 13:31:00,54.1,26.4,30.62,East,95,3.0,13.0,34,0.00,CLR,SCT,0.00,0.0,WeatherDisplay:10.37,2013-04-22 17:31:00,
2013-04-22 13:41:00,54.2,27.1,30.62,East,87,3.0,8.0,35,0.00,CLR,SCT,0.00,0.0,WeatherDisplay:10.37,2013-04-22 17:41:00,
2013-04-22 13:46:00,54.2,26.4,30.61,ENE,67,5.0,10.0,34,0.00,CLR,SCT,0.00,0.0,WeatherDisplay:10.37,2013-04-22 17:46:00,
2013-04-22 14:02:00,54.0,28.3,30.62,ESE,123,3.0,13.0,37,0.00,CLR,SCT,0.00,0.0,WeatherDisplay:10.37,2013-04-22 18:02:00,
2013-04-22 14:11:00,53.8,27.4,30.61,SE,134,5.0,9.0,36,0.00,CLR,SCT,0.00,0.0,WeatherDisplay:10.37,2013-04-22 18:11:00,
2013-04-22 14:16:00,53.5,27.9,30.61,SE,125,3.0,13.0,37,0.00,CLR,SCT,0.00,0.0,WeatherDisplay:10.37,2013-04-22 18:16:00,
2013-04-22 14:26:00,54.4,29.3,30.59,East,82,3.0,13.0,38,0.00,CLR,SCT,0.00,0.0,WeatherDisplay:10.37,2013-04-22 18:26:00,
2013-04-22 14:31:00,54.0,27.6,30.60,East,80,5.0,9.0,36,0.00,CLR,SCT,0.00,0.0,WeatherDisplay:10.37,2013-04-22 18:31:00,
2013-04-22 14:41:00,54.1,29.0,30.59,East,99,3.0,9.0,38,0.00,CLR,SCT,0.00,0.0,WeatherDisplay:10.37,2013-04-22 18:41:00,
2013-04-22 14:51:00,52.6,27.7,30.59,East,83,3.0,8.0,38,0.00,CLR,SCT,0.00,0.0,WeatherDisplay:10.37,2013-04-22 18:51:00,
2013-04-22 14:56:00,52.8,27.2,30.58,ENE,67,3.0,8.0,37,0.00,CLR,SCT,0.00,0.0,WeatherDisplay:10.37,2013-04-22 18:56:00,
2013-04-22 15:02:00,53.7,28.7,30.58,East,89,3.0,12.0,38,0.00,CLR,SCT,0.00,0.0,WeatherDisplay:10.37,2013-04-22 19:02:00,
2013-04-22 15:11:00,53.0,27.4,30.58,ENE,74,3.0,12.0,37,0.00,SCT,SCT,0.00,0.0,WeatherDisplay:10.37,2013-04-22 19:11:00,
2013-04-22 15:16:00,52.7,27.1,30.58,ENE,78,3.0,10.0,37,0.00,SCT,SCT,0.00,0.0,WeatherDisplay:10.37,2013-04-22 19:16:00,
2013-04-22 15:26:00,52.9,26.7,30.57,South,169,2.0,9.0,36,0.00,SCT,SCT,0.00,0.0,WeatherDisplay:10.37,2013-04-22 19:26:00,
2013-04-22 15:31:00,53.2,26.2,30.57,South,169,5.0,9.0,35,0.00,SCT,SCT,0.00,0.0,WeatherDisplay:10.37,2013-04-22 19:31:00,
2013-04-22 15:41:00,52.9,25.9,30.57,East,101,6.0,8.0,35,0.00,SCT,SCT,0.00,0.0,WeatherDisplay:10.37,2013-04-22 19:41:00,
2013-04-22 15:46:00,53.3,27.0,30.57,East,98,3.0,9.0,36,0.00,SCT,SCT,0.00,0.0,WeatherDisplay:10.37,2013-04-22 19:46:00,
2013-04-22 15:56:00,52.5,24.9,30.56,East,84,5.0,8.0,34,0.00,SCT,SCT,0.00,0.0,WeatherDisplay:10.37,2013-04-22 19:56:00,
2013-04-22 16:02:00,53.1,26.1,30.57,East,89,3.0,10.0,35,0.00,SCT,SCT,0.00,0.0,WeatherDisplay:10.37,2013-04-22 20:02:00,
2013-04-22 16:11:00,54.3,27.9,30.57,East,97,3.0,10.0,36,0.00,CLR,SCT,0.00,0.0,WeatherDisplay:10.37,2013-04-22 20:11:00,
2013-04-22 16:16:00,53.7,26.7,30.57,East,86,5.0,10.0,35,0.00,CLR,SCT,0.00,0.0,WeatherDisplay:10.37,2013-04-22 20:16:00,
2013-04-22 16:26:00,52.8,27.2,30.57,ESE,120,5.0,8.0,37,0.00,CLR,SCT,0.00,0.0,WeatherDisplay:10.37,2013-04-22 20:26:00,
2013-04-22 16:31:00,52.7,29.0,30.57,ESE,123,3.0,8.0,40,0.00,CLR,SCT,0.00,0.0,WeatherDisplay:10.37,2013-04-22 20:31:00,
2013-04-22 16:41:00,51.9,30.6,30.56,ESE,107,3.0,8.0,44,0.00,CLR,SCT,0.00,0.0,WeatherDisplay:10.37,2013-04-22 20:41:00,
2013-04-22 16:46:00,51.4,31.2,30.56,ESE,117,6.0,8.0,46,0.00,CLR,SCT,0.00,0.0,WeatherDisplay:10.37,2013-04-22 20:46:00,
2013-04-22 16:51:00,51.6,32.0,30.56,ESE,108,6.0,10.0,47,0.00,CLR,SCT,0.00,0.0,WeatherDisplay:10.37,2013-04-22 20:51:00,
2013-04-22 17:02:00,49.8,32.4,30.56,East,97,3.0,9.0,51,0.00,CLR,SCT,0.00,0.0,WeatherDisplay:10.37,2013-04-22 21:02:00,
2013-04-22 17:11:00,49.2,32.8,30.57,SE,131,5.0,8.0,53,0.00,CLR,SCT,0.00,0.0,WeatherDisplay:10.37,2013-04-22 21:11:00,
2013-04-22 17:16:00,48.8,32.9,30.57,SE,130,3.0,8.0,54,0.00,CLR,SCT,0.00,0.0,WeatherDisplay:10.37,2013-04-22 21:16:00,
2013-04-22 17:26:00,48.2,32.8,30.57,ESE,103,3.0,9.0,55,0.00,CLR,SCT,0.00,0.0,WeatherDisplay:10.37,2013-04-22 21:26:00,
2013-04-22 17:31:00,48.4,33.4,30.58,ESE,105,3.0,9.0,56,0.00,CLR,SCT,0.00,0.0,WeatherDisplay:10.37,2013-04-22 21:31:00,
2013-04-22 17:41:00,48.1,33.2,30.57,East,91,2.0,6.0,56,0.00,CLR,SCT,0.00,0.0,WeatherDisplay:10.37,2013-04-22 21:41:00,
2013-04-22 17:46:00,47.8,32.9,30.57,East,80,2.0,8.0,56,0.00,CLR,SCT,0.00,0.0,WeatherDisplay:10.37,2013-04-22 21:46:00,
2013-04-22 17:56:00,47.0,32.6,30.57,ESE,119,3.0,8.0,57,0.00,CLR,SCT,0.00,0.0,WeatherDisplay:10.37,2013-04-22 21:56:00,
2013-04-22 18:02:00,46.9,32.9,30.57,ESE,120,3.0,6.0,58,0.00,CLR,SCT,0.00,0.0,WeatherDisplay:10.37,2013-04-22 22:02:00,
2013-04-22 18:11:00,46.6,33.4,30.57,East,96,7.0,11.0,60,0.00,SCT,SCT,0.00,0.0,WeatherDisplay:10.37,2013-04-22 22:11:00,
2013-04-22 18:21:00,46.2,33.5,30.57,ESE,117,3.0,8.0,61,0.00,SCT,SCT,0.00,0.0,WeatherDisplay:10.37,2013-04-22 22:21:00,
2013-04-22 18:26:00,46.2,33.5,30.57,East,96,2.0,8.0,61,0.00,SCT,SCT,0.00,0.0,WeatherDisplay:10.37,2013-04-22 22:26:00,
2013-04-22 18:31:00,46.0,33.3,30.57,East,95,3.0,6.0,61,0.00,SCT,SCT,0.00,0.0,WeatherDisplay:10.37,2013-04-22 22:31:00,
2013-04-22 18:41:00,45.7,33.4,30.57,ESE,119,2.0,8.0,62,0.00,SCT,SCT,0.00,0.0,WeatherDisplay:10.37,2013-04-22 22:41:00,
2013-04-22 18:46:00,45.6,33.3,30.57,ESE,103,2.0,6.0,62,0.00,SCT,SCT,0.00,0.0,WeatherDisplay:10.37,2013-04-22 22:46:00,
2013-04-22 18:56:00,45.3,32.7,30.57,ESE,110,2.0,8.0,61,0.00,SCT,SCT,0.00,0.0,WeatherDisplay:10.37,2013-04-22 22:56:00,
2013-04-22 19:02:00,45.2,32.9,30.57,ESE,113,2.0,8.0,62,0.00,SCT,SCT,0.00,0.0,WeatherDisplay:10.37,2013-04-22 23:02:00,
2013-04-22 19:11:00,45.0,32.8,30.57,East,98,2.0,8.0,62,0.00,SCT,SCT,0.00,0.0,WeatherDisplay:10.37,2013-04-22 23:11:00,
2013-04-22 19:21:00,44.8,32.1,30.57,SE,131,1.0,4.0,61,0.00,SCT,SCT,0.00,0.0,WeatherDisplay:10.37,2013-04-22 23:21:00,
2013-04-22 19:26:00,44.8,32.5,30.57,SE,133,2.0,6.0,62,0.00,SCT,SCT,0.00,0.0,WeatherDisplay:10.37,2013-04-22 23:26:00,
2013-04-22 19:31:00,44.6,32.4,30.57,ESE,112,2.0,6.0,62,0.00,SCT,SCT,0.00,0.0,WeatherDisplay:10.37,2013-04-22 23:31:00,
2013-04-22 19:41:00,44.4,33.4,30.56,East,86,1.0,6.0,65,0.00,SCT,SCT,0.00,0.0,WeatherDisplay:10.37,2013-04-22 23:41:00,
2013-04-22 19:46:00,44.2,33.1,30.56,ENE,73,2.0,7.0,65,0.00,SCT,SCT,0.00,0.0,WeatherDisplay:10.37,2013-04-22 23:46:00,
2013-04-22 19:56:00,43.6,32.6,30.57,ESE,111,1.0,5.0,65,0.00,SCT,SCT,0.00,0.0,WeatherDisplay:10.37,2013-04-22 23:56:00,
2013-04-22 20:02:00,43.4,32.8,30.57,SE,129,1.0,6.0,66,0.00,SCT,SCT,0.00,0.0,WeatherDisplay:10.37,2013-04-23 00:02:00,
2013-04-22 20:11:00,43.0,33.2,30.57,ESE,106,1.0,6.0,68,0.00,FEW,SCT,0.00,0.0,WeatherDisplay:10.37,2013-04-23 00:11:00,
2013-04-22 20:16:00,43.0,33.1,30.57,ESE,104,2.0,6.0,68,0.00,FEW,SCT,0.00,0.0,WeatherDisplay:10.37,2013-04-23 00:16:00,
2013-04-22 20:26:00,42.8,32.6,30.57,ESE,104,2.0,6.0,67,0.00,FEW,SCT,0.00,0.0,WeatherDisplay:10.37,2013-04-23 00:26:00,
2013-04-22 20:31:00,42.8,32.6,30.56,ENE,71,2.0,6.0,67,0.00,FEW,SCT,0.00,0.0,WeatherDisplay:10.37,2013-04-23 00:31:00,
2013-04-22 20:41:00,42.6,32.7,30.57,NE,56,2.0,8.0,68,0.00,FEW,SCT,0.00,0.0,WeatherDisplay:10.37,2013-04-23 00:41:00,
2013-04-22 20:46:00,42.3,32.5,30.57,East,83,1.0,8.0,68,0.00,FEW,SCT,0.00,0.0,WeatherDisplay:10.37,2013-04-23 00:46:00,
2013-04-22 20:56:00,42.1,33.0,30.57,East,92,1.0,3.0,70,0.00,FEW,SCT,0.00,0.0,WeatherDisplay:10.37,2013-04-23 00:56:00,
2013-04-22 21:06:00,41.9,33.5,30.57,East,97,1.0,5.0,72,0.00,FEW,SCT,0.00,0.0,WeatherDisplay:10.37,2013-04-23 01:06:00,
2013-04-22 21:16:00,41.6,33.6,30.57,ENE,73,2.0,8.0,73,0.00,FEW,SCT,0.00,0.0,WeatherDisplay:10.37,2013-04-23 01:16:00,
2013-04-22 21:26:00,41.5,33.5,30.57,East,82,1.0,4.0,73,0.00,CLR,SCT,0.00,0.0,WeatherDisplay:10.37,2013-04-23 01:26:00,
2013-04-22 21:31:00,41.4,33.7,30.57,East,86,1.0,3.0,74,0.00,CLR,SCT,0.00,0.0,WeatherDisplay:10.37,2013-04-23 01:31:00,
2013-04-22 21:41:00,41.2,33.9,30.57,ENE,64,1.0,4.0,75,0.00,CLR,SCT,0.00,0.0,WeatherDisplay:10.37,2013-04-23 01:41:00,
2013-04-22 21:46:00,41.2,33.8,30.56,East,79,1.0,5.0,75,0.00,CLR,SCT,0.00,0.0,WeatherDisplay:10.37,2013-04-23 01:46:00,
2013-04-22 21:56:00,41.0,34.0,30.56,ENE,72,1.0,3.0,76,0.00,CLR,SCT,0.00,0.0,WeatherDisplay:10.37,2013-04-23 01:56:00,
2013-04-22 22:02:00,41.0,34.0,30.56,ENE,61,1.0,4.0,76,0.00,CLR,SCT,0.00,0.0,WeatherDisplay:10.37,2013-04-23 02:02:00,
2013-04-22 22:16:00,41.0,34.0,30.56,East,91,1.0,5.0,76,0.00,CLR,SCT,0.00,0.0,WeatherDisplay:10.37,2013-04-23 02:16:00,
2013-04-22 22:26:00,40.7,33.8,30.55,ESE,123,1.0,6.0,76,0.00,CLR,SCT,0.00,0.0,WeatherDisplay:10.37,2013-04-23 02:26:00,
2013-04-22 22:31:00,40.6,33.7,30.55,East,99,1.0,6.0,76,0.00,CLR,SCT,0.00,0.0,WeatherDisplay:10.37,2013-04-23 02:31:00,
2013-04-22 22:41:00,40.5,33.5,30.54,East,90,1.0,3.0,76,0.00,CLR,SCT,0.00,0.0,WeatherDisplay:10.37,2013-04-23 02:41:00,
2013-04-22 22:46:00,40.5,33.5,30.54,East,82,1.0,3.0,76,0.00,CLR,SCT,0.00,0.0,WeatherDisplay:10.37,2013-04-23 02:46:00,
2013-04-22 22:56:00,40.3,33.0,30.54,ENE,74,1.0,2.0,75,0.00,CLR,SCT,0.00,0.0,WeatherDisplay:10.37,2013-04-23 02:56:00,
2013-04-22 23:02:00,40.2,32.9,30.53,East,90,1.0,2.0,75,0.00,CLR,SCT,0.00,0.0,WeatherDisplay:10.37,2013-04-23 03:02:00,
2013-04-22 23:11:00,40.0,32.7,30.53,East,90,1.0,3.0,75,0.00,BKN,SCT,0.00,0.0,WeatherDisplay:10.37,2013-04-23 03:11:00,
2013-04-22 23:16:00,39.9,32.6,30.53,East,90,1.0,3.0,75,0.00,BKN,SCT,0.00,0.0,WeatherDisplay:10.37,2013-04-23 03:16:00,
2013-04-22 23:26:00,39.6,32.3,30.53,ENE,66,0.0,2.0,75,0.00,SCT,SCT,0.00,0.0,WeatherDisplay:10.37,2013-04-23 03:26:00,
2013-04-22 23:31:00,39.4,32.1,30.53,East,80,0.0,3.0,75,0.00,SCT,SCT,0.00,0.0,WeatherDisplay:10.37,2013-04-23 03:31:00,
2013-04-22 23:41:00,39.2,32.0,30.53,East,93,0.0,3.0,75,0.00,SCT,SCT,0.00,0.0,WeatherDisplay:10.37,2013-04-23 03:41:00,
2013-04-22 23:46:00,39.2,31.9,30.53,East,90,1.0,3.0,75,0.00,SCT,SCT,0.00,0.0,WeatherDisplay:10.37,2013-04-23 03:46:00,
2013-04-22 23:56:00,39.0,31.8,30.53,East,90,0.0,2.0,75,0.00,SCT,SCT,0.00,0.0,WeatherDisplay:10.37,2013-04-23 03:56:00,